LFBC

Cazaux (BA 120) Air Base

Airport
ICAO code
LFBC
Summary
ICAO Region
EUR
ICAO Territory
Location

, Aquitaine

Serving
Cazaux
Elevation
84 ft
Coordinates
44° 31' 60" N , 1° 7' 30" W
Metar
Observation
LFBC 012300Z AUTO 01004KT 9999 OVC044 06/05 Q1021
Station
Cazaux
Date/Time
2022-12-01 23:00:00
Wind direction
10°
Wind speed
04 kts
Lowest cloud amount
overcast
Temperature
6°C
Dew point
5°C
Humidity
93%
QNH
1021 hPa
Weather condition
n/a

Runways

Designator Length Width Surface Rops
6/24 2408 45 ASP No/No

Airport map

Aerial View

SKYbrary Partners:

Safety knowledge contributed by: